< < Back
Terminal Aerodrome Forecast


Current Version              Previous Versions:   1  2  3  4  5  6  7  8  9  

Terminal Aerodrome Forecast

718
FTUS42 KCAE 191100
TAFAGS
TAF
KAGS 191136Z 1912/2012 00000KT 5SM BR SCT250
      TEMPO 1912/1913 1SM BR
     FM191500 03003KT P6SM SCT200
     FM200000 VRB03KT P6SM OVC100
     FM200700 VRB03KT P6SM -RA OVC050=



Latest METAR

873
SAUS70 KWBC 191200 RRB
MTRAGS
METAR KAGS 191153Z 00000KT 5SM BR CLR 01/00 A3013 RMK AO2 SLP202
T00060000 10044 21006 53009


USA.gov is the U.S. government's official web portal to all federal, state and local government web resources and services.